Andover, MN (55304)

7:46 PM CDT on April 28, 2017 (GMT -0500)
Hills of Bunker Lake | | Change Station

Elev 886 ft 45.22 °N, 93.30 °W | Updated 30 seconds ago

Partly Cloudy
Partly Cloudy
47.7 °F
Feels Like 48 °F
N
0.0
Wind Variable Wind from NW
Gusts 3.7 mph

Today
High -- | Low -- °F
--% Chance of Precip.
Yesterday
High -- | Low -- °F
Precip. -- in
Pressure 29.98 in
Visibility 10.0 miles
Clouds Few 5000 ft
Mostly Cloudy 20000 ft
Windchill 48 °F
Dew Point 33 °F
Humidity 56%
Rainfall 0.00 in
Snow Depth Not available.
6:06 AM 8:15 PM
Waxing Crescent, 9% visible
METAR KANE 282350Z 35010G16KT 10SM FEW050 BKN200 11/M02 A2998
Pressure 29.98 in
Visibility 10.0 miles
Clouds Few 5000 ft
Mostly Cloudy 20000 ft
Windchill 48 °F
Dew Point 33 °F
Humidity 56%
Rainfall 0.00 in
Snow Depth Not available.
6:06 AM 8:15 PM
Waxing Crescent, 9% visible
METAR KANE 282350Z 35010G16KT 10SM FEW050 BKN200 11/M02 A2998

Get Severe Weather Alerts

Thanks for signing up!

Be on the lookout for a verification email in your inbox.

You'll start receiving the daily forecast at 8 AM.

×

10-Day Weather Forecast

Almanac

Astronomy

Apr. 28, 2017 Rise Set
Actual Time
Civil Twilight
Nautical Twilight
Astronomical Twilight
Moon
Length of Visible Light
Length of Day
Tomorrow will be .
, % of the Moon is Illuminated

Today's Extremes

State Highs State Lows

Community

WunderPhotos

WunderBlog® & News

Nearby

Air Quality

  Air Quality AQ Index Pollutant
Not available.

Snow Depth

Station Depth Elevation

Earthquake Activity

City Distance Mag. Time & Date
Minimum magnitude displayed is 2.5.

Coastal Water Temperatures

Place Temperature

Stations

Nearby Weather Stations

Station Location Temp. Windchill Dew Point Humidity Wind Precip. Elev Updated Type
                   

Watches & Warnings

There are currently no watches in effect.